sensor_id;sensor_type;location;lat;lon;timestamp;P1;durP1;ratioP1;P2;durP2;ratioP2
11681;SDS011;5897;42.640;23.310;2024-03-06T00:00:41;15.80;;;11.63;;
11681;SDS011;5897;42.640;23.310;2024-03-06T00:03:08;17.38;;;13.45;;
11681;SDS011;5897;42.640;23.310;2024-03-06T00:05:35;20.65;;;14.55;;
11681;SDS011;5897;42.640;23.310;2024-03-06T00:08:02;17.38;;;13.80;;
11681;SDS011;5897;42.640;23.310;2024-03-06T00:10:29;21.95;;;14.95;;
11681;SDS011;5897;42.640;23.310;2024-03-06T00:12:55;20.05;;;15.05;;
11681;SDS011;5897;42.640;23.310;2024-03-06T00:15:23;19.13;;;14.95;;
11681;SDS011;5897;42.640;23.310;2024-03-06T00:17:50;22.20;;;15.65;;
11681;SDS011;5897;42.640;23.310;2024-03-06T00:20:19;20.92;;;15.05;;
11681;SDS011;5897;42.640;23.310;2024-03-06T00:22:46;17.98;;;14.93;;
11681;SDS011;5897;42.640;23.310;2024-03-06T00:25:13;20.98;;;13.98;;
11681;SDS011;5897;42.640;23.310;2024-03-06T00:27:40;20.17;;;14.43;;
11681;SDS011;5897;42.640;23.310;2024-03-06T00:30:07;21.08;;;14.25;;
11681;SDS011;5897;42.640;23.310;2024-03-06T00:32:35;21.15;;;14.68;;
11681;SDS011;5897;42.640;23.310;2024-03-06T00:35:02;18.67;;;13.95;;
11681;SDS011;5897;42.640;23.310;2024-03-06T00:37:29;17.30;;;13.40;;
11681;SDS011;5897;42.640;23.310;2024-03-06T00:39:56;18.38;;;14.68;;
11681;SDS011;5897;42.640;23.310;2024-03-06T00:42:23;19.88;;;15.48;;
11681;SDS011;5897;42.640;23.310;2024-03-06T00:44:50;21.35;;;15.00;;
11681;SDS011;5897;42.640;23.310;2024-03-06T00:47:18;18.88;;;14.68;;
11681;SDS011;5897;42.640;23.310;2024-03-06T00:49:48;21.10;;;15.60;;
11681;SDS011;5897;42.640;23.310;2024-03-06T00:52:14;22.30;;;17.45;;
11681;SDS011;5897;42.640;23.310;2024-03-06T00:54:41;21.20;;;15.70;;
11681;SDS011;5897;42.640;23.310;2024-03-06T00:57:08;23.50;;;16.55;;
11681;SDS011;5897;42.640;23.310;2024-03-06T00:59:35;20.45;;;16.05;;
11681;SDS011;5897;42.640;23.310;2024-03-06T01:02:02;21.50;;;16.10;;
11681;SDS011;5897;42.640;23.310;2024-03-06T01:04:29;22.27;;;16.00;;
11681;SDS011;5897;42.640;23.310;2024-03-06T01:06:57;19.27;;;14.68;;
11681;SDS011;5897;42.640;23.310;2024-03-06T01:09:24;19.38;;;14.80;;
11681;SDS011;5897;42.640;23.310;2024-03-06T01:11:52;18.38;;;14.48;;
11681;SDS011;5897;42.640;23.310;2024-03-06T01:14:19;18.92;;;13.23;;
11681;SDS011;5897;42.640;23.310;2024-03-06T01:16:46;15.90;;;13.10;;
11681;SDS011;5897;42.640;23.310;2024-03-06T01:19:12;15.43;;;12.25;;
11681;SDS011;5897;42.640;23.310;2024-03-06T01:21:39;14.20;;;11.82;;
11681;SDS011;5897;42.640;23.310;2024-03-06T01:24:07;16.70;;;11.95;;
11681;SDS011;5897;42.640;23.310;2024-03-06T01:26:33;18.70;;;13.85;;
11681;SDS011;5897;42.640;23.310;2024-03-06T01:29:00;20.27;;;13.57;;
11681;SDS011;5897;42.640;23.310;2024-03-06T01:31:27;18.35;;;13.85;;
11681;SDS011;5897;42.640;23.310;2024-03-06T01:33:54;19.88;;;15.10;;
11681;SDS011;5897;42.640;23.310;2024-03-06T01:36:20;17.80;;;14.43;;
11681;SDS011;5897;42.640;23.310;2024-03-06T01:38:49;20.45;;;15.20;;
11681;SDS011;5897;42.640;23.310;2024-03-06T01:41:18;20.08;;;15.07;;
11681;SDS011;5897;42.640;23.310;2024-03-06T01:43:44;22.80;;;16.02;;
11681;SDS011;5897;42.640;23.310;2024-03-06T01:46:12;18.08;;;14.68;;
11681;SDS011;5897;42.640;23.310;2024-03-06T01:48:38;17.75;;;13.35;;
11681;SDS011;5897;42.640;23.310;2024-03-06T01:51:07;16.77;;;12.65;;
11681;SDS011;5897;42.640;23.310;2024-03-06T01:53:34;15.02;;;11.27;;
11681;SDS011;5897;42.640;23.310;2024-03-06T01:56:02;12.02;;;9.88;;
11681;SDS011;5897;42.640;23.310;2024-03-06T01:58:35;11.23;;;9.85;;
11681;SDS011;5897;42.640;23.310;2024-03-06T02:01:01;12.80;;;9.57;;
11681;SDS011;5897;42.640;23.310;2024-03-06T02:03:28;12.70;;;10.75;;
11681;SDS011;5897;42.640;23.310;2024-03-06T02:05:57;15.95;;;12.25;;
11681;SDS011;5897;42.640;23.310;2024-03-06T02:08:27;16.27;;;12.45;;
11681;SDS011;5897;42.640;23.310;2024-03-06T02:10:54;17.75;;;14.40;;
11681;SDS011;5897;42.640;23.310;2024-03-06T02:13:21;16.70;;;12.18;;
11681;SDS011;5897;42.640;23.310;2024-03-06T02:15:49;14.75;;;11.07;;
11681;SDS011;5897;42.640;23.310;2024-03-06T02:18:16;14.77;;;11.27;;
11681;SDS011;5897;42.640;23.310;2024-03-06T02:20:44;14.32;;;10.43;;
11681;SDS011;5897;42.640;23.310;2024-03-06T02:23:12;12.43;;;10.07;;
11681;SDS011;5897;42.640;23.310;2024-03-06T02:25:39;13.07;;;10.52;;
11681;SDS011;5897;42.640;23.310;2024-03-06T02:28:06;14.80;;;10.07;;
11681;SDS011;5897;42.640;23.310;2024-03-06T02:30:33;11.20;;;9.82;;
11681;SDS011;5897;42.640;23.310;2024-03-06T02:33:01;12.13;;;10.15;;
11681;SDS011;5897;42.640;23.310;2024-03-06T02:35:29;16.92;;;10.95;;
11681;SDS011;5897;42.640;23.310;2024-03-06T02:37:57;14.18;;;11.07;;
11681;SDS011;5897;42.640;23.310;2024-03-06T02:40:25;14.18;;;10.52;;
11681;SDS011;5897;42.640;23.310;2024-03-06T02:42:51;14.98;;;11.07;;
11681;SDS011;5897;42.640;23.310;2024-03-06T02:45:18;14.48;;;10.05;;
11681;SDS011;5897;42.640;23.310;2024-03-06T02:47:45;13.45;;;9.90;;
11681;SDS011;5897;42.640;23.310;2024-03-06T02:50:12;15.38;;;11.93;;
11681;SDS011;5897;42.640;23.310;2024-03-06T02:52:38;16.73;;;11.50;;
11681;SDS011;5897;42.640;23.310;2024-03-06T02:55:07;16.27;;;11.85;;
11681;SDS011;5897;42.640;23.310;2024-03-06T02:57:34;15.95;;;11.63;;
11681;SDS011;5897;42.640;23.310;2024-03-06T03:00:00;13.93;;;11.20;;
11681;SDS011;5897;42.640;23.310;2024-03-06T03:02:27;13.82;;;10.85;;
11681;SDS011;5897;42.640;23.310;2024-03-06T03:04:54;14.05;;;10.63;;
11681;SDS011;5897;42.640;23.310;2024-03-06T03:07:21;15.23;;;10.73;;
11681;SDS011;5897;42.640;23.310;2024-03-06T03:09:48;13.93;;;10.13;;
11681;SDS011;5897;42.640;23.310;2024-03-06T03:12:16;13.25;;;11.10;;
11681;SDS011;5897;42.640;23.310;2024-03-06T03:14:43;14.32;;;10.98;;
11681;SDS011;5897;42.640;23.310;2024-03-06T03:17:10;14.15;;;11.40;;
11681;SDS011;5897;42.640;23.310;2024-03-06T03:19:37;13.07;;;10.93;;
11681;SDS011;5897;42.640;23.310;2024-03-06T03:22:05;16.10;;;11.85;;
11681;SDS011;5897;42.640;23.310;2024-03-06T03:24:33;15.02;;;11.32;;
11681;SDS011;5897;42.640;23.310;2024-03-06T03:26:59;18.08;;;12.52;;
11681;SDS011;5897;42.640;23.310;2024-03-06T03:29:27;17.55;;;13.52;;
11681;SDS011;5897;42.640;23.310;2024-03-06T03:31:54;17.60;;;13.70;;
11681;SDS011;5897;42.640;23.310;2024-03-06T03:34:22;20.15;;;13.25;;
11681;SDS011;5897;42.640;23.310;2024-03-06T03:36:48;16.90;;;14.23;;
11681;SDS011;5897;42.640;23.310;2024-03-06T03:39:15;15.55;;;13.25;;
11681;SDS011;5897;42.640;23.310;2024-03-06T03:41:42;19.77;;;14.70;;
11681;SDS011;5897;42.640;23.310;2024-03-06T03:44:11;20.90;;;15.45;;
11681;SDS011;5897;42.640;23.310;2024-03-06T03:46:39;20.15;;;15.45;;
11681;SDS011;5897;42.640;23.310;2024-03-06T03:49:05;18.88;;;14.38;;
11681;SDS011;5897;42.640;23.310;2024-03-06T03:51:33;17.80;;;14.23;;
11681;SDS011;5897;42.640;23.310;2024-03-06T03:54:00;24.67;;;15.25;;
11681;SDS011;5897;42.640;23.310;2024-03-06T03:56:30;20.20;;;15.65;;
11681;SDS011;5897;42.640;23.310;2024-03-06T03:58:57;22.02;;;15.50;;
11681;SDS011;5897;42.640;23.310;2024-03-06T04:01:24;20.75;;;15.40;;
11681;SDS011;5897;42.640;23.310;2024-03-06T04:03:54;20.00;;;15.13;;
11681;SDS011;5897;42.640;23.310;2024-03-06T04:06:21;19.88;;;15.40;;
11681;SDS011;5897;42.640;23.310;2024-03-06T04:08:48;18.33;;;14.55;;
11681;SDS011;5897;42.640;23.310;2024-03-06T04:11:14;16.90;;;12.40;;
11681;SDS011;5897;42.640;23.310;2024-03-06T04:13:41;17.30;;;12.68;;
11681;SDS011;5897;42.640;23.310;2024-03-06T04:16:08;16.30;;;12.25;;
11681;SDS011;5897;42.640;23.310;2024-03-06T04:18:41;17.95;;;12.57;;
11681;SDS011;5897;42.640;23.310;2024-03-06T04:21:11;16.75;;;13.05;;
11681;SDS011;5897;42.640;23.310;2024-03-06T04:23:39;18.90;;;14.82;;
11681;SDS011;5897;42.640;23.310;2024-03-06T04:26:06;18.92;;;15.02;;
11681;SDS011;5897;42.640;23.310;2024-03-06T04:28:33;18.60;;;14.05;;
11681;SDS011;5897;42.640;23.310;2024-03-06T04:30:59;19.45;;;15.10;;
11681;SDS011;5897;42.640;23.310;2024-03-06T04:33:26;20.10;;;14.52;;
11681;SDS011;5897;42.640;23.310;2024-03-06T04:35:52;19.88;;;14.60;;
11681;SDS011;5897;42.640;23.310;2024-03-06T04:38:23;15.85;;;11.98;;
11681;SDS011;5897;42.640;23.310;2024-03-06T04:40:52;31.20;;;22.33;;
11681;SDS011;5897;42.640;23.310;2024-03-06T04:43:19;27.65;;;19.65;;
11681;SDS011;5897;42.640;23.310;2024-03-06T04:45:45;20.75;;;14.68;;
11681;SDS011;5897;42.640;23.310;2024-03-06T04:48:12;19.60;;;15.40;;
11681;SDS011;5897;42.640;23.310;2024-03-06T04:50:39;24.60;;;16.02;;
11681;SDS011;5897;42.640;23.310;2024-03-06T04:53:06;24.20;;;15.93;;
11681;SDS011;5897;42.640;23.310;2024-03-06T04:55:34;19.85;;;14.75;;
11681;SDS011;5897;42.640;23.310;2024-03-06T04:58:02;19.65;;;13.80;;
11681;SDS011;5897;42.640;23.310;2024-03-06T05:00:29;17.73;;;14.32;;
11681;SDS011;5897;42.640;23.310;2024-03-06T05:02:56;18.45;;;13.30;;
11681;SDS011;5897;42.640;23.310;2024-03-06T05:05:22;18.98;;;14.10;;
11681;SDS011;5897;42.640;23.310;2024-03-06T05:07:50;18.38;;;13.15;;
11681;SDS011;5897;42.640;23.310;2024-03-06T05:10:17;17.90;;;13.10;;
11681;SDS011;5897;42.640;23.310;2024-03-06T05:12:45;18.67;;;14.13;;
11681;SDS011;5897;42.640;23.310;2024-03-06T05:15:12;18.42;;;14.57;;
11681;SDS011;5897;42.640;23.310;2024-03-06T05:17:38;17.77;;;13.68;;
11681;SDS011;5897;42.640;23.310;2024-03-06T05:20:07;17.50;;;13.50;;
11681;SDS011;5897;42.640;23.310;2024-03-06T05:22:34;18.52;;;12.95;;
11681;SDS011;5897;42.640;23.310;2024-03-06T05:25:00;15.55;;;11.90;;
11681;SDS011;5897;42.640;23.310;2024-03-06T05:27:35;16.08;;;11.30;;
11681;SDS011;5897;42.640;23.310;2024-03-06T05:30:03;15.55;;;11.77;;
11681;SDS011;5897;42.640;23.310;2024-03-06T05:32:31;14.45;;;11.73;;
11681;SDS011;5897;42.640;23.310;2024-03-06T05:34:58;19.38;;;12.88;;
11681;SDS011;5897;42.640;23.310;2024-03-06T05:37:24;17.98;;;12.77;;
11681;SDS011;5897;42.640;23.310;2024-03-06T05:39:51;19.00;;;12.55;;
11681;SDS011;5897;42.640;23.310;2024-03-06T05:42:18;16.75;;;12.70;;
11681;SDS011;5897;42.640;23.310;2024-03-06T05:44:44;15.00;;;11.68;;
11681;SDS011;5897;42.640;23.310;2024-03-06T05:47:13;21.45;;;12.40;;
11681;SDS011;5897;42.640;23.310;2024-03-06T05:49:39;20.25;;;13.10;;
11681;SDS011;5897;42.640;23.310;2024-03-06T05:52:06;20.65;;;13.90;;
11681;SDS011;5897;42.640;23.310;2024-03-06T05:54:33;20.45;;;14.90;;
11681;SDS011;5897;42.640;23.310;2024-03-06T05:57:00;23.27;;;15.68;;
11681;SDS011;5897;42.640;23.310;2024-03-06T05:59:28;24.27;;;17.58;;
11681;SDS011;5897;42.640;23.310;2024-03-06T06:01:55;26.00;;;16.58;;
11681;SDS011;5897;42.640;23.310;2024-03-06T06:04:24;30.15;;;17.55;;
11681;SDS011;5897;42.640;23.310;2024-03-06T06:06:51;27.80;;;16.85;;
11681;SDS011;5897;42.640;23.310;2024-03-06T06:09:18;21.20;;;16.42;;
11681;SDS011;5897;42.640;23.310;2024-03-06T06:11:45;21.33;;;16.80;;
11681;SDS011;5897;42.640;23.310;2024-03-06T06:14:12;24.17;;;17.17;;
11681;SDS011;5897;42.640;23.310;2024-03-06T06:16:40;23.38;;;17.10;;
11681;SDS011;5897;42.640;23.310;2024-03-06T06:19:10;22.20;;;16.08;;
11681;SDS011;5897;42.640;23.310;2024-03-06T06:21:38;23.77;;;16.40;;
11681;SDS011;5897;42.640;23.310;2024-03-06T06:24:05;25.60;;;15.30;;
11681;SDS011;5897;42.640;23.310;2024-03-06T06:26:33;25.63;;;15.63;;
11681;SDS011;5897;42.640;23.310;2024-03-06T06:28:59;22.40;;;16.08;;
11681;SDS011;5897;42.640;23.310;2024-03-06T06:31:26;24.27;;;16.45;;
11681;SDS011;5897;42.640;23.310;2024-03-06T06:33:53;26.35;;;16.33;;
11681;SDS011;5897;42.640;23.310;2024-03-06T06:36:20;23.77;;;16.10;;
11681;SDS011;5897;42.640;23.310;2024-03-06T06:38:48;23.10;;;15.88;;
11681;SDS011;5897;42.640;23.310;2024-03-06T06:41:16;22.92;;;16.98;;
11681;SDS011;5897;42.640;23.310;2024-03-06T06:43:44;25.35;;;17.10;;
11681;SDS011;5897;42.640;23.310;2024-03-06T06:46:11;24.83;;;18.00;;
11681;SDS011;5897;42.640;23.310;2024-03-06T06:48:37;28.63;;;17.67;;
11681;SDS011;5897;42.640;23.310;2024-03-06T06:51:04;30.77;;;19.77;;
11681;SDS011;5897;42.640;23.310;2024-03-06T06:53:31;29.40;;;19.15;;
11681;SDS011;5897;42.640;23.310;2024-03-06T06:55:59;26.88;;;18.83;;
11681;SDS011;5897;42.640;23.310;2024-03-06T06:58:26;29.95;;;17.63;;
11681;SDS011;5897;42.640;23.310;2024-03-06T07:00:55;31.20;;;23.60;;
11681;SDS011;5897;42.640;23.310;2024-03-06T07:03:22;35.05;;;22.20;;
11681;SDS011;5897;42.640;23.310;2024-03-06T07:05:54;28.05;;;20.42;;
11681;SDS011;5897;42.640;23.310;2024-03-06T07:08:21;33.45;;;19.80;;
11681;SDS011;5897;42.640;23.310;2024-03-06T07:10:48;29.08;;;19.42;;
11681;SDS011;5897;42.640;23.310;2024-03-06T07:13:20;25.27;;;19.27;;
11681;SDS011;5897;42.640;23.310;2024-03-06T07:15:46;28.40;;;19.48;;
11681;SDS011;5897;42.640;23.310;2024-03-06T07:18:13;29.35;;;19.15;;
11681;SDS011;5897;42.640;23.310;2024-03-06T07:20:40;26.67;;;18.90;;
11681;SDS011;5897;42.640;23.310;2024-03-06T07:23:07;26.50;;;18.65;;
11681;SDS011;5897;42.640;23.310;2024-03-06T07:25:33;28.83;;;18.75;;
11681;SDS011;5897;42.640;23.310;2024-03-06T07:28:00;27.55;;;17.95;;
11681;SDS011;5897;42.640;23.310;2024-03-06T07:30:28;26.55;;;18.20;;
11681;SDS011;5897;42.640;23.310;2024-03-06T07:32:56;23.52;;;18.20;;
11681;SDS011;5897;42.640;23.310;2024-03-06T07:35:23;27.73;;;18.35;;
11681;SDS011;5897;42.640;23.310;2024-03-06T07:37:50;25.25;;;18.48;;
11681;SDS011;5897;42.640;23.310;2024-03-06T07:40:16;24.85;;;17.65;;
11681;SDS011;5897;42.640;23.310;2024-03-06T07:42:43;27.48;;;19.67;;
11681;SDS011;5897;42.640;23.310;2024-03-06T07:45:10;25.38;;;16.98;;
11681;SDS011;5897;42.640;23.310;2024-03-06T07:47:38;26.98;;;17.50;;
11681;SDS011;5897;42.640;23.310;2024-03-06T07:50:06;21.85;;;16.05;;
11681;SDS011;5897;42.640;23.310;2024-03-06T07:52:36;27.67;;;17.42;;
11681;SDS011;5897;42.640;23.310;2024-03-06T07:55:03;24.80;;;17.92;;
11681;SDS011;5897;42.640;23.310;2024-03-06T07:57:30;26.25;;;18.92;;
11681;SDS011;5897;42.640;23.310;2024-03-06T07:59:57;29.42;;;18.45;;
11681;SDS011;5897;42.640;23.310;2024-03-06T08:02:24;21.35;;;17.05;;
11681;SDS011;5897;42.640;23.310;2024-03-06T08:04:52;26.92;;;16.80;;
11681;SDS011;5897;42.640;23.310;2024-03-06T08:07:18;26.65;;;16.88;;
11681;SDS011;5897;42.640;23.310;2024-03-06T08:09:45;25.90;;;17.60;;
11681;SDS011;5897;42.640;23.310;2024-03-06T08:12:12;26.48;;;17.90;;
11681;SDS011;5897;42.640;23.310;2024-03-06T08:14:38;22.95;;;17.45;;
11681;SDS011;5897;42.640;23.310;2024-03-06T08:17:05;25.23;;;16.92;;
11681;SDS011;5897;42.640;23.310;2024-03-06T08:19:32;23.42;;;17.00;;
11681;SDS011;5897;42.640;23.310;2024-03-06T08:22:00;23.63;;;16.55;;
11681;SDS011;5897;42.640;23.310;2024-03-06T08:24:27;24.58;;;16.48;;
11681;SDS011;5897;42.640;23.310;2024-03-06T08:26:54;26.42;;;18.45;;
11681;SDS011;5897;42.640;23.310;2024-03-06T08:29:24;22.23;;;17.10;;
11681;SDS011;5897;42.640;23.310;2024-03-06T08:31:50;25.33;;;16.83;;
11681;SDS011;5897;42.640;23.310;2024-03-06T08:34:18;29.33;;;17.40;;
11681;SDS011;5897;42.640;23.310;2024-03-06T08:36:45;25.20;;;16.33;;
11681;SDS011;5897;42.640;23.310;2024-03-06T08:39:13;22.50;;;16.63;;
11681;SDS011;5897;42.640;23.310;2024-03-06T08:41:41;22.75;;;16.98;;
11681;SDS011;5897;42.640;23.310;2024-03-06T08:44:08;20.98;;;15.90;;
11681;SDS011;5897;42.640;23.310;2024-03-06T08:46:35;25.48;;;16.77;;
11681;SDS011;5897;42.640;23.310;2024-03-06T08:49:01;26.88;;;17.52;;
11681;SDS011;5897;42.640;23.310;2024-03-06T08:51:28;25.55;;;18.08;;
11681;SDS011;5897;42.640;23.310;2024-03-06T08:53:55;30.40;;;17.73;;
11681;SDS011;5897;42.640;23.310;2024-03-06T08:56:24;27.83;;;18.55;;
11681;SDS011;5897;42.640;23.310;2024-03-06T08:58:50;24.60;;;18.05;;
11681;SDS011;5897;42.640;23.310;2024-03-06T09:01:17;24.00;;;18.48;;
11681;SDS011;5897;42.640;23.310;2024-03-06T09:03:43;27.27;;;18.90;;
11681;SDS011;5897;42.640;23.310;2024-03-06T09:06:10;26.67;;;18.92;;
11681;SDS011;5897;42.640;23.310;2024-03-06T09:08:37;34.15;;;20.27;;
11681;SDS011;5897;42.640;23.310;2024-03-06T09:11:04;25.45;;;20.38;;
11681;SDS011;5897;42.640;23.310;2024-03-06T09:13:35;28.95;;;20.40;;
11681;SDS011;5897;42.640;23.310;2024-03-06T09:16:02;26.73;;;19.08;;
11681;SDS011;5897;42.640;23.310;2024-03-06T09:18:29;24.90;;;17.67;;
11681;SDS011;5897;42.640;23.310;2024-03-06T09:20:57;20.52;;;16.25;;
11681;SDS011;5897;42.640;23.310;2024-03-06T09:23:24;25.15;;;18.48;;
11681;SDS011;5897;42.640;23.310;2024-03-06T09:25:51;27.45;;;19.02;;
11681;SDS011;5897;42.640;23.310;2024-03-06T09:28:19;24.48;;;19.08;;
11681;SDS011;5897;42.640;23.310;2024-03-06T09:30:47;22.20;;;17.85;;
11681;SDS011;5897;42.640;23.310;2024-03-06T09:33:13;26.92;;;17.30;;
11681;SDS011;5897;42.640;23.310;2024-03-06T09:35:40;23.17;;;17.08;;
11681;SDS011;5897;42.640;23.310;2024-03-06T09:38:10;20.23;;;16.25;;
11681;SDS011;5897;42.640;23.310;2024-03-06T09:40:39;21.65;;;15.00;;
11681;SDS011;5897;42.640;23.310;2024-03-06T09:43:07;17.92;;;14.35;;
11681;SDS011;5897;42.640;23.310;2024-03-06T09:45:35;19.52;;;14.48;;
11681;SDS011;5897;42.640;23.310;2024-03-06T09:48:04;23.23;;;16.13;;
11681;SDS011;5897;42.640;23.310;2024-03-06T09:50:31;21.55;;;15.13;;
11681;SDS011;5897;42.640;23.310;2024-03-06T09:53:06;20.48;;;14.95;;
11681;SDS011;5897;42.640;23.310;2024-03-06T09:55:35;19.33;;;14.95;;
11681;SDS011;5897;42.640;23.310;2024-03-06T09:58:03;19.75;;;14.07;;
11681;SDS011;5897;42.640;23.310;2024-03-06T10:00:30;18.08;;;14.32;;
11681;SDS011;5897;42.640;23.310;2024-03-06T10:02:57;21.50;;;15.05;;
11681;SDS011;5897;42.640;23.310;2024-03-06T10:05:29;20.48;;;13.70;;
11681;SDS011;5897;42.640;23.310;2024-03-06T10:07:58;18.00;;;13.60;;
11681;SDS011;5897;42.640;23.310;2024-03-06T10:10:25;18.98;;;13.60;;
11681;SDS011;5897;42.640;23.310;2024-03-06T10:12:52;18.67;;;13.27;;
11681;SDS011;5897;42.640;23.310;2024-03-06T10:15:19;17.70;;;14.95;;
11681;SDS011;5897;42.640;23.310;2024-03-06T10:17:49;19.33;;;14.70;;
11681;SDS011;5897;42.640;23.310;2024-03-06T10:20:17;26.85;;;19.80;;
11681;SDS011;5897;42.640;23.310;2024-03-06T10:22:47;21.42;;;15.65;;
11681;SDS011;5897;42.640;23.310;2024-03-06T10:25:17;20.02;;;16.17;;
11681;SDS011;5897;42.640;23.310;2024-03-06T10:27:45;20.55;;;16.27;;
11681;SDS011;5897;42.640;23.310;2024-03-06T10:30:12;22.55;;;15.50;;
11681;SDS011;5897;42.640;23.310;2024-03-06T10:32:41;15.90;;;13.10;;
11681;SDS011;5897;42.640;23.310;2024-03-06T10:35:17;18.77;;;13.93;;
11681;SDS011;5897;42.640;23.310;2024-03-06T10:37:44;20.27;;;13.82;;
11681;SDS011;5897;42.640;23.310;2024-03-06T10:40:13;15.40;;;13.38;;
11681;SDS011;5897;42.640;23.310;2024-03-06T10:42:42;18.95;;;13.43;;
11681;SDS011;5897;42.640;23.310;2024-03-06T10:45:10;13.23;;;8.73;;
11681;SDS011;5897;42.640;23.310;2024-03-06T10:47:40;11.73;;;9.65;;
11681;SDS011;5897;42.640;23.310;2024-03-06T10:50:07;12.93;;;9.15;;
11681;SDS011;5897;42.640;23.310;2024-03-06T10:52:36;9.60;;;5.85;;
11681;SDS011;5897;42.640;23.310;2024-03-06T10:55:04;9.48;;;5.75;;
11681;SDS011;5897;42.640;23.310;2024-03-06T10:57:34;13.18;;;9.25;;
11681;SDS011;5897;42.640;23.310;2024-03-06T11:00:03;16.30;;;11.88;;
11681;SDS011;5897;42.640;23.310;2024-03-06T11:02:31;15.02;;;12.10;;
11681;SDS011;5897;42.640;23.310;2024-03-06T11:04:58;17.80;;;14.00;;
11681;SDS011;5897;42.640;23.310;2024-03-06T11:07:25;13.57;;;9.50;;
11681;SDS011;5897;42.640;23.310;2024-03-06T11:09:53;16.17;;;9.40;;
11681;SDS011;5897;42.640;23.310;2024-03-06T11:12:33;12.48;;;9.75;;
11681;SDS011;5897;42.640;23.310;2024-03-06T11:15:08;9.90;;;8.70;;
11681;SDS011;5897;42.640;23.310;2024-03-06T11:17:36;9.93;;;8.30;;
11681;SDS011;5897;42.640;23.310;2024-03-06T11:20:13;10.70;;;8.50;;
11681;SDS011;5897;42.640;23.310;2024-03-06T11:25:57;18.15;;;7.80;;
11681;SDS011;5897;42.640;23.310;2024-03-06T11:28:30;8.77;;;7.20;;
11681;SDS011;5897;42.640;23.310;2024-03-06T11:30:59;8.95;;;7.10;;
11681;SDS011;5897;42.640;23.310;2024-03-06T11:33:37;9.68;;;7.30;;
11681;SDS011;5897;42.640;23.310;2024-03-06T11:36:17;12.95;;;7.65;;
11681;SDS011;5897;42.640;23.310;2024-03-06T11:38:46;7.80;;;6.60;;
11681;SDS011;5897;42.640;23.310;2024-03-06T11:41:14;9.10;;;7.03;;
11681;SDS011;5897;42.640;23.310;2024-03-06T11:43:44;10.18;;;7.10;;
11681;SDS011;5897;42.640;23.310;2024-03-06T11:46:11;10.00;;;6.95;;
11681;SDS011;5897;42.640;23.310;2024-03-06T11:48:38;9.65;;;6.70;;
11681;SDS011;5897;42.640;23.310;2024-03-06T11:51:05;9.20;;;7.32;;
11681;SDS011;5897;42.640;23.310;2024-03-06T11:53:33;10.80;;;7.32;;
11681;SDS011;5897;42.640;23.310;2024-03-06T11:56:01;7.55;;;6.65;;
11681;SDS011;5897;42.640;23.310;2024-03-06T11:58:32;9.00;;;5.90;;
11681;SDS011;5897;42.640;23.310;2024-03-06T12:01:00;6.95;;;5.97;;
11681;SDS011;5897;42.640;23.310;2024-03-06T12:03:27;9.95;;;6.85;;
11681;SDS011;5897;42.640;23.310;2024-03-06T12:05:54;7.53;;;5.97;;
11681;SDS011;5897;42.640;23.310;2024-03-06T12:08:20;8.05;;;6.30;;
11681;SDS011;5897;42.640;23.310;2024-03-06T12:10:47;8.98;;;6.78;;
11681;SDS011;5897;42.640;23.310;2024-03-06T12:13:14;10.93;;;9.10;;
11681;SDS011;5897;42.640;23.310;2024-03-06T12:15:42;9.35;;;7.43;;
11681;SDS011;5897;42.640;23.310;2024-03-06T12:18:11;10.13;;;6.57;;
11681;SDS011;5897;42.640;23.310;2024-03-06T12:20:40;9.43;;;6.60;;
11681;SDS011;5897;42.640;23.310;2024-03-06T12:23:18;10.45;;;6.20;;
11681;SDS011;5897;42.640;23.310;2024-03-06T12:25:46;7.70;;;6.80;;
11681;SDS011;5897;42.640;23.310;2024-03-06T12:28:12;10.05;;;7.00;;
11681;SDS011;5897;42.640;23.310;2024-03-06T12:30:40;7.85;;;6.43;;
11681;SDS011;5897;42.640;23.310;2024-03-06T12:33:09;9.43;;;8.38;;
11681;SDS011;5897;42.640;23.310;2024-03-06T12:35:41;11.27;;;7.38;;
11681;SDS011;5897;42.640;23.310;2024-03-06T12:38:11;9.68;;;6.60;;
11681;SDS011;5897;42.640;23.310;2024-03-06T12:40:38;20.23;;;18.00;;
11681;SDS011;5897;42.640;23.310;2024-03-06T12:43:05;8.80;;;7.30;;
11681;SDS011;5897;42.640;23.310;2024-03-06T12:45:32;17.30;;;6.65;;
11681;SDS011;5897;42.640;23.310;2024-03-06T12:48:00;8.82;;;6.68;;
11681;SDS011;5897;42.640;23.310;2024-03-06T12:50:26;9.15;;;6.57;;
11681;SDS011;5897;42.640;23.310;2024-03-06T12:52:55;9.90;;;6.55;;
11681;SDS011;5897;42.640;23.310;2024-03-06T12:55:22;7.03;;;6.43;;
11681;SDS011;5897;42.640;23.310;2024-03-06T12:57:48;7.15;;;6.18;;
11681;SDS011;5897;42.640;23.310;2024-03-06T13:00:16;11.55;;;5.65;;
11681;SDS011;5897;42.640;23.310;2024-03-06T13:02:43;8.50;;;5.78;;
11681;SDS011;5897;42.640;23.310;2024-03-06T13:05:11;10.15;;;6.28;;
11681;SDS011;5897;42.640;23.310;2024-03-06T13:07:38;9.02;;;6.00;;
11681;SDS011;5897;42.640;23.310;2024-03-06T13:10:12;7.03;;;5.68;;
11681;SDS011;5897;42.640;23.310;2024-03-06T13:12:39;8.70;;;6.47;;
11681;SDS011;5897;42.640;23.310;2024-03-06T13:15:06;10.63;;;6.43;;
11681;SDS011;5897;42.640;23.310;2024-03-06T13:17:33;8.05;;;5.85;;
11681;SDS011;5897;42.640;23.310;2024-03-06T13:20:00;14.35;;;10.27;;
11681;SDS011;5897;42.640;23.310;2024-03-06T13:22:27;10.50;;;6.15;;
11681;SDS011;5897;42.640;23.310;2024-03-06T13:24:53;8.30;;;5.90;;
11681;SDS011;5897;42.640;23.310;2024-03-06T13:27:23;7.22;;;5.90;;
11681;SDS011;5897;42.640;23.310;2024-03-06T13:29:50;7.65;;;5.32;;
11681;SDS011;5897;42.640;23.310;2024-03-06T13:32:17;12.55;;;6.13;;
11681;SDS011;5897;42.640;23.310;2024-03-06T13:34:44;10.10;;;6.65;;
11681;SDS011;5897;42.640;23.310;2024-03-06T13:37:10;9.95;;;5.40;;
11681;SDS011;5897;42.640;23.310;2024-03-06T13:39:37;6.75;;;4.97;;
11681;SDS011;5897;42.640;23.310;2024-03-06T13:42:05;6.68;;;5.50;;
11681;SDS011;5897;42.640;23.310;2024-03-06T13:44:34;7.68;;;6.28;;
11681;SDS011;5897;42.640;23.310;2024-03-06T13:47:01;6.53;;;5.68;;
11681;SDS011;5897;42.640;23.310;2024-03-06T13:49:34;6.68;;;5.35;;
11681;SDS011;5897;42.640;23.310;2024-03-06T13:52:03;7.20;;;5.43;;
11681;SDS011;5897;42.640;23.310;2024-03-06T13:54:32;8.82;;;5.25;;
11681;SDS011;5897;42.640;23.310;2024-03-06T13:56:58;7.05;;;4.90;;
11681;SDS011;5897;42.640;23.310;2024-03-06T13:59:27;6.82;;;4.95;;
11681;SDS011;5897;42.640;23.310;2024-03-06T14:01:56;8.02;;;4.97;;
11681;SDS011;5897;42.640;23.310;2024-03-06T14:04:24;7.13;;;4.88;;
11681;SDS011;5897;42.640;23.310;2024-03-06T14:06:50;6.60;;;5.88;;
11681;SDS011;5897;42.640;23.310;2024-03-06T14:09:17;7.47;;;5.40;;
11681;SDS011;5897;42.640;23.310;2024-03-06T14:11:44;11.05;;;5.25;;
11681;SDS011;5897;42.640;23.310;2024-03-06T14:14:10;7.22;;;5.10;;
11681;SDS011;5897;42.640;23.310;2024-03-06T14:16:38;8.38;;;5.40;;
11681;SDS011;5897;42.640;23.310;2024-03-06T14:19:07;5.78;;;5.00;;
11681;SDS011;5897;42.640;23.310;2024-03-06T14:21:34;7.43;;;4.97;;
11681;SDS011;5897;42.640;23.310;2024-03-06T14:24:04;7.85;;;5.05;;
11681;SDS011;5897;42.640;23.310;2024-03-06T14:26:31;10.20;;;5.43;;
11681;SDS011;5897;42.640;23.310;2024-03-06T14:28:59;7.15;;;5.35;;
11681;SDS011;5897;42.640;23.310;2024-03-06T14:31:26;6.47;;;5.00;;